Hauptseite
METAR-TAF:

METAR-TAF

Flughäfen :

Flughafen Annecy

Annecy, Frankreich

Breite: 45-55-45N, Länge: 006-05-56E, Höhe: 463 m

Beobachtung

Neuester Wetterbericht von vor 35 Minuten, um 03:30 UTC
Wind 1 kt aus unterschiedlichen Richtungen
Temperatur 12°C
Luftfeuchtigkeit 82%
Luftdruck 1017 hPa
Sichtweite 10 km oder mehr
keine Wolken unter 1500 m und keine Kumulonimbus oder Gewitterwolken

METAR: LFLP 160330Z AUTO VRB01KT CAVOK 12/09 Q1017 NOSIG

Zeit: 06:05 (04:05 UTC)

Prognose

Neuester Wetterbericht von vor 2 Stunden und 5 Minuten, um 02:00 UTC
Gültige Prognose vom 16 um 03 UTC bis 17 um 03 UTC
Wind 3 kt aus unterschiedlichen Richtungen
Sichtweite 10 km oder mehr
keine Wolken unter 1500 m und keine Kumulonimbus oder Gewitterwolken
Zeitweise
vom 17 um 00 UTC bis 17 um 03 UTC
Sichtweite: 4000 m
feuchter Dunst

TAF: LFLP 160200Z 1603/1703 VRB03KT CAVOK TEMPO 1700/1703 4000 BR

Wetterbeobachtungen und Prognosen von mehr als 4000 Flughäfen (METAR und TAF Bericht).

Die verfügbaren Stationen werden durch gelbe und rote Markierungen auf der Karte dargestellt.

Führen Sie die Maus auf sie, um den Namen der Station zu sehen.

Darauf klicken, um die Beobachtung von Wetterbeobachtungen und Prognosen zu sehen.

Um die Karte zu ändern : klicken Sie auf den grünen Tasten mit einem schwarzen Kreuz Zum Vergrößern, auf den grünen Button mit einem Gedankenstrich zu verkleinern, oder auf die grünen Pfeile für benachbarte Karten.


METAR-TAF: